createdAt,value
2019-03-21T00:00:45.133Z,12.00
2019-03-21T00:01:44.764Z,12.00
2019-03-21T00:02:44.768Z,12.00
2019-03-21T00:03:44.746Z,12.00
2019-03-21T00:04:44.807Z,12.00
2019-03-21T00:05:44.729Z,12.00
2019-03-21T00:06:44.771Z,12.00
2019-03-21T00:07:44.699Z,12.00
2019-03-21T00:08:44.691Z,12.00
2019-03-21T00:09:44.678Z,12.00
2019-03-21T00:10:44.710Z,8.00
2019-03-21T00:11:44.668Z,8.00
2019-03-21T00:12:44.645Z,8.00
2019-03-21T00:13:44.671Z,8.00
2019-03-21T00:14:44.628Z,8.00
2019-03-21T00:15:44.639Z,8.00
2019-03-21T00:16:44.631Z,8.00
2019-03-21T00:17:44.593Z,8.00
2019-03-21T00:18:44.581Z,8.00
2019-03-21T00:19:44.572Z,8.00
2019-03-21T00:20:44.561Z,8.00
2019-03-21T00:21:54.697Z,8.00
2019-03-21T00:22:44.540Z,8.00
2019-03-21T00:23:44.529Z,8.00
2019-03-21T00:24:44.517Z,8.00
2019-03-21T00:25:44.507Z,8.00
2019-03-21T00:26:44.502Z,8.00
2019-03-21T00:27:44.533Z,8.00
2019-03-21T00:28:44.476Z,8.00
2019-03-21T00:29:44.464Z,8.00
2019-03-21T00:30:44.457Z,8.00
2019-03-21T00:31:44.457Z,8.00
2019-03-21T00:32:44.433Z,8.00
2019-03-21T00:33:44.461Z,8.00
2019-03-21T00:34:44.411Z,8.00
2019-03-21T00:35:44.402Z,8.00
2019-03-21T00:36:44.391Z,8.00
2019-03-21T00:37:44.378Z,8.00
2019-03-21T00:38:44.370Z,8.00
2019-03-21T00:39:44.373Z,12.00
2019-03-21T00:40:44.363Z,8.00
2019-03-21T00:41:44.366Z,8.00
2019-03-21T00:42:44.328Z,8.00
2019-03-21T00:43:44.316Z,8.00
2019-03-21T00:44:44.345Z,8.00
2019-03-21T00:45:44.296Z,8.00
2019-03-21T00:46:44.285Z,8.00
2019-03-21T00:47:44.274Z,8.00
2019-03-21T00:48:44.266Z,8.00
2019-03-21T00:49:44.251Z,8.00
2019-03-21T00:50:44.250Z,8.00
2019-03-21T00:51:44.236Z,8.00
2019-03-21T00:52:56.101Z,8.00
2019-03-21T00:53:44.208Z,8.00
2019-03-21T00:54:44.199Z,8.00
2019-03-21T00:55:44.207Z,8.00
2019-03-21T00:56:44.177Z,8.00
2019-03-21T00:57:44.171Z,8.00
2019-03-21T00:58:44.156Z,8.00
2019-03-21T00:59:44.142Z,8.00
2019-03-21T01:00:44.139Z,8.00
2019-03-21T01:01:44.134Z,8.00
2019-03-21T01:02:44.110Z,8.00
2019-03-21T01:03:44.106Z,8.00
2019-03-21T01:04:44.094Z,8.00
2019-03-21T01:05:44.080Z,8.00
2019-03-21T01:06:44.112Z,8.00
2019-03-21T01:07:44.062Z,8.00
2019-03-21T01:08:44.049Z,8.00
2019-03-21T01:09:44.039Z,8.00
2019-03-21T01:10:44.033Z,8.00
2019-03-21T01:11:44.018Z,8.00
2019-03-21T01:12:44.014Z,8.00
2019-03-21T01:13:43.997Z,8.00
2019-03-21T01:14:43.983Z,8.00
2019-03-21T01:15:43.974Z,8.00
2019-03-21T01:16:43.969Z,8.00
2019-03-21T01:17:43.992Z,8.00
2019-03-21T01:18:43.943Z,8.00
2019-03-21T01:19:43.932Z,8.00
2019-03-21T01:20:43.922Z,8.00
2019-03-21T01:21:43.910Z,12.00
2019-03-21T01:22:43.902Z,12.00
2019-03-21T01:23:54.691Z,12.00
2019-03-21T01:24:43.880Z,8.00
2019-03-21T01:25:43.867Z,12.00
2019-03-21T01:26:43.856Z,8.00
2019-03-21T01:27:43.847Z,8.00
2019-03-21T01:28:43.877Z,12.00
2019-03-21T01:29:43.827Z,12.00
2019-03-21T01:30:43.814Z,12.00
2019-03-21T01:31:43.803Z,8.00
2019-03-21T01:32:43.795Z,8.00
2019-03-21T01:33:43.788Z,8.00
2019-03-21T01:34:43.780Z,12.00
2019-03-21T01:35:43.759Z,12.00
2019-03-21T01:36:43.748Z,12.00
2019-03-21T01:37:43.738Z,8.00
2019-03-21T01:38:43.740Z,12.00
2019-03-21T01:39:43.729Z,12.00
2019-03-21T01:40:43.782Z,12.00
2019-03-21T01:41:43.699Z,8.00
2019-03-21T01:42:43.689Z,12.00
2019-03-21T01:43:43.680Z,8.00
2019-03-21T01:44:43.672Z,12.00
2019-03-21T01:45:43.664Z,12.00
2019-03-21T01:46:43.646Z,8.00
2019-03-21T01:47:43.645Z,12.00
2019-03-21T01:48:43.623Z,12.00
2019-03-21T01:49:43.610Z,12.00
2019-03-21T01:50:43.600Z,12.00
2019-03-21T01:51:43.598Z,12.00
2019-03-21T01:52:43.579Z,12.00
2019-03-21T01:53:43.577Z,12.00
2019-03-21T01:54:53.767Z,12.00
2019-03-21T01:55:43.546Z,12.00
2019-03-21T01:56:43.555Z,12.00
2019-03-21T01:57:43.526Z,12.00
2019-03-21T01:58:43.514Z,12.00
2019-03-21T01:59:43.503Z,12.00
2019-03-21T02:00:43.499Z,12.00
2019-03-21T02:01:43.485Z,12.00
2019-03-21T02:02:43.486Z,12.00
2019-03-21T02:03:43.472Z,12.00
2019-03-21T02:04:43.451Z,12.00
2019-03-21T02:05:43.438Z,12.00
2019-03-21T02:06:43.432Z,12.00
2019-03-21T02:07:43.430Z,12.00
2019-03-21T02:08:43.425Z,12.00
2019-03-21T02:09:43.398Z,12.00
2019-03-21T02:10:43.389Z,12.00
2019-03-21T02:11:43.375Z,12.00
2019-03-21T02:12:43.374Z,12.00
2019-03-21T02:13:43.396Z,12.00
2019-03-21T02:14:51.789Z,12.00
2019-03-21T02:15:44.334Z,12.00
2019-03-21T02:16:43.322Z,12.00
2019-03-21T02:17:43.312Z,12.00
2019-03-21T02:18:43.299Z,12.00
2019-03-21T02:19:43.331Z,12.00
2019-03-21T02:20:43.279Z,12.00
2019-03-21T02:21:43.270Z,12.00
2019-03-21T02:22:43.259Z,12.00
2019-03-21T02:23:43.247Z,12.00
2019-03-21T02:24:43.235Z,12.00
2019-03-21T02:25:53.254Z,12.00
2019-03-21T02:26:43.217Z,12.00
2019-03-21T02:27:43.204Z,12.00
2019-03-21T02:28:43.193Z,12.00
2019-03-21T02:29:43.180Z,12.00
2019-03-21T02:30:43.181Z,12.00
2019-03-21T02:31:43.187Z,12.00
2019-03-21T02:32:43.152Z,12.00
2019-03-21T02:33:43.138Z,12.00
2019-03-21T02:34:43.124Z,12.00
2019-03-21T02:35:43.117Z,12.00
2019-03-21T02:36:43.110Z,12.00
2019-03-21T02:37:43.139Z,12.00
2019-03-21T02:38:43.081Z,12.00
2019-03-21T02:39:43.074Z,12.00
2019-03-21T02:40:43.058Z,12.00
2019-03-21T02:41:43.048Z,12.00
2019-03-21T02:42:43.039Z,12.00
2019-03-21T02:43:43.043Z,12.00
2019-03-21T02:44:43.063Z,12.00
2019-03-21T02:45:43.007Z,12.00
2019-03-21T02:46:42.992Z,12.00
2019-03-21T02:47:43.036Z,12.00
2019-03-21T02:48:42.979Z,12.00
2019-03-21T02:49:42.968Z,12.00
2019-03-21T02:50:42.958Z,12.00
2019-03-21T02:51:42.949Z,12.00
2019-03-21T02:52:42.931Z,12.00
2019-03-21T02:53:42.999Z,12.00
2019-03-21T02:54:42.917Z,12.00
2019-03-21T02:55:42.905Z,12.00
2019-03-21T02:56:52.902Z,12.00
2019-03-21T02:57:42.882Z,12.00
2019-03-21T02:58:42.872Z,12.00
2019-03-21T02:59:42.862Z,12.00
2019-03-21T03:00:42.846Z,12.00
2019-03-21T03:01:42.840Z,12.00
2019-03-21T03:02:42.832Z,12.00
2019-03-21T03:03:42.824Z,12.00
2019-03-21T03:04:42.837Z,12.00
2019-03-21T03:05:42.797Z,12.00
2019-03-21T03:06:42.780Z,12.00
2019-03-21T03:07:42.772Z,12.00
2019-03-21T03:08:42.766Z,12.00
2019-03-21T03:09:42.762Z,12.00
2019-03-21T03:10:42.783Z,12.00
2019-03-21T03:11:42.730Z,12.00
2019-03-21T03:12:42.720Z,8.00
2019-03-21T03:13:42.709Z,8.00
2019-03-21T03:14:42.703Z,8.00
2019-03-21T03:15:42.687Z,8.00
2019-03-21T03:16:42.715Z,8.00
2019-03-21T03:17:42.664Z,8.00
2019-03-21T03:18:42.654Z,8.00
2019-03-21T03:19:42.640Z,8.00
2019-03-21T03:20:42.635Z,8.00
2019-03-21T03:21:42.630Z,8.00
2019-03-21T03:22:42.619Z,12.00
2019-03-21T03:23:42.608Z,12.00
2019-03-21T03:24:42.590Z,12.00
2019-03-21T03:25:42.578Z,12.00
2019-03-21T03:26:42.564Z,12.00
2019-03-21T03:27:53.288Z,12.00
2019-03-21T03:28:42.566Z,12.00
2019-03-21T03:29:42.551Z,12.00
2019-03-21T03:30:42.525Z,16.00
2019-03-21T03:31:42.517Z,12.00
2019-03-21T03:32:42.516Z,16.00
2019-03-21T03:33:42.535Z,16.00
2019-03-21T03:34:42.484Z,16.00
2019-03-21T03:35:42.478Z,16.00
2019-03-21T03:36:42.468Z,20.00
2019-03-21T03:37:42.465Z,24.00
2019-03-21T03:38:42.436Z,20.00
2019-03-21T03:39:42.441Z,28.00
2019-03-21T03:40:42.424Z,28.00
2019-03-21T03:41:42.405Z,28.00
2019-03-21T03:42:42.403Z,36.00
2019-03-21T03:43:42.399Z,36.00
2019-03-21T03:44:42.422Z,40.00
2019-03-21T03:45:42.369Z,44.00
2019-03-21T03:46:42.351Z,52.00
2019-03-21T03:47:42.353Z,56.00
2019-03-21T03:48:42.347Z,64.00
2019-03-21T03:49:42.322Z,72.00
2019-03-21T03:50:42.320Z,84.00
2019-03-21T03:51:42.302Z,88.00
2019-03-21T03:52:42.289Z,100.00
2019-03-21T03:53:42.806Z,112.00
2019-03-21T03:54:42.270Z,124.00
2019-03-21T03:55:42.265Z,136.00
2019-03-21T03:56:42.269Z,152.00
2019-03-21T03:57:42.241Z,172.00
2019-03-21T03:58:52.215Z,188.00
2019-03-21T03:59:42.743Z,208.00
2019-03-21T04:00:42.207Z,228.00
2019-03-21T04:01:42.209Z,248.00
2019-03-21T04:02:42.185Z,272.00
2019-03-21T04:03:42.170Z,300.00
2019-03-21T04:04:42.158Z,320.00
2019-03-21T04:05:42.158Z,348.00
2019-03-21T04:06:42.146Z,376.00
2019-03-21T04:07:42.142Z,412.00
2019-03-21T04:08:42.125Z,444.00
2019-03-21T04:09:42.115Z,484.00
2019-03-21T04:10:42.102Z,528.00
2019-03-21T04:11:42.096Z,556.00
2019-03-21T04:12:42.083Z,600.00
2019-03-21T04:13:42.066Z,644.00
2019-03-21T04:14:42.060Z,684.00
2019-03-21T04:15:52.525Z,736.00
2019-03-21T04:16:43.037Z,796.00
2019-03-21T04:17:42.033Z,828.00
2019-03-21T04:18:42.011Z,872.00
2019-03-21T04:19:42.006Z,924.00
2019-03-21T04:20:41.990Z,960.00
2019-03-21T04:21:41.980Z,992.00
2019-03-21T04:22:42.003Z,1048.00
2019-03-21T04:23:41.971Z,1108.00
2019-03-21T04:24:41.947Z,1152.00
2019-03-21T04:25:41.934Z,1204.00
2019-03-21T04:26:41.948Z,1260.00
2019-03-21T04:27:41.917Z,1304.00
2019-03-21T04:28:41.946Z,1368.00
2019-03-21T04:29:52.175Z,1404.00
2019-03-21T04:30:41.889Z,1468.00
2019-03-21T04:31:41.867Z,1516.00
2019-03-21T04:32:41.866Z,1568.00
2019-03-21T04:33:41.858Z,1632.00
2019-03-21T04:34:41.884Z,1680.00
2019-03-21T04:35:41.825Z,1736.00
2019-03-21T04:36:41.826Z,1824.00
2019-03-21T04:37:41.812Z,1880.00
2019-03-21T04:38:41.800Z,1912.00
2019-03-21T04:39:41.785Z,1964.00
2019-03-21T04:40:41.790Z,2012.00
2019-03-21T04:41:41.783Z,2056.00
2019-03-21T04:42:41.754Z,2140.00
2019-03-21T04:43:41.744Z,2172.00
2019-03-21T04:44:41.733Z,2340.00
2019-03-21T04:45:41.721Z,2336.00
2019-03-21T04:46:41.721Z,2316.00
2019-03-21T04:47:41.748Z,2348.00
2019-03-21T04:48:41.685Z,2412.00
2019-03-21T04:49:41.677Z,2436.00
2019-03-21T04:50:41.674Z,2476.00
2019-03-21T04:51:41.657Z,2520.00
2019-03-21T04:52:41.650Z,2596.00
2019-03-21T04:53:41.642Z,2636.00
2019-03-21T04:54:41.628Z,2716.00
2019-03-21T04:55:41.616Z,2748.00
2019-03-21T04:56:41.604Z,2784.00
2019-03-21T04:57:41.594Z,2800.00
2019-03-21T04:58:41.627Z,2856.00
2019-03-21T04:59:41.576Z,2856.00
2019-03-21T05:00:52.458Z,2916.00
2019-03-21T05:01:41.545Z,2956.00
2019-03-21T05:02:41.537Z,3044.00
2019-03-21T05:03:41.527Z,3084.00
2019-03-21T05:04:41.533Z,3120.00
2019-03-21T05:05:41.553Z,3344.00
2019-03-21T05:06:41.497Z,3304.00
2019-03-21T05:07:41.487Z,3328.00
2019-03-21T05:08:41.486Z,3308.00
2019-03-21T05:09:41.484Z,3452.00
2019-03-21T05:10:41.457Z,3508.00
2019-03-21T05:11:41.454Z,3528.00
2019-03-21T05:12:41.436Z,3540.00
2019-03-21T05:13:41.427Z,3512.00
2019-03-21T05:14:41.415Z,3492.00
2019-03-21T05:15:41.409Z,3632.00
2019-03-21T05:16:41.395Z,3668.00
2019-03-21T05:17:41.378Z,3820.00
2019-03-21T05:18:41.376Z,3852.00
2019-03-21T05:19:41.361Z,3848.00
2019-03-21T05:20:41.388Z,3924.00
2019-03-21T05:21:41.336Z,3824.00
2019-03-21T05:22:41.322Z,3896.00
2019-03-21T05:23:41.312Z,3860.00
2019-03-21T05:24:41.306Z,3872.00
2019-03-21T05:25:41.304Z,4076.00
2019-03-21T05:26:41.295Z,4224.00
2019-03-21T05:27:41.274Z,4156.00
2019-03-21T05:28:42.260Z,4148.00
2019-03-21T05:29:41.257Z,4312.00
2019-03-21T05:30:41.238Z,4436.00
2019-03-21T05:31:52.305Z,4404.00
2019-03-21T05:32:41.220Z,4388.00
2019-03-21T05:33:41.208Z,4488.00
2019-03-21T05:34:41.200Z,4536.00
2019-03-21T05:35:41.182Z,4616.00
2019-03-21T05:36:41.172Z,4520.00
2019-03-21T05:37:41.197Z,4624.00
2019-03-21T05:38:41.151Z,4712.00
2019-03-21T05:39:41.141Z,4784.00
2019-03-21T05:40:41.135Z,4608.00
2019-03-21T05:41:41.125Z,4564.00
2019-03-21T05:42:41.174Z,4716.00
2019-03-21T05:43:41.140Z,4732.00
2019-03-21T05:44:41.093Z,4788.00
2019-03-21T05:45:41.081Z,4932.00
2019-03-21T05:46:41.072Z,5044.00
2019-03-21T05:47:41.062Z,4908.00
2019-03-21T05:48:41.048Z,5024.00
2019-03-21T05:49:41.072Z,4932.00
2019-03-21T05:50:41.031Z,4992.00
2019-03-21T05:51:41.021Z,5092.00
2019-03-21T05:52:41.006Z,5128.00
2019-03-21T05:53:40.994Z,5208.00
2019-03-21T05:54:40.991Z,5224.00
2019-03-21T05:55:40.978Z,5324.00
2019-03-21T05:56:40.970Z,5352.00
2019-03-21T05:57:40.954Z,5372.00
2019-03-21T05:58:40.941Z,5392.00
2019-03-21T05:59:40.929Z,5452.00
2019-03-21T06:00:40.927Z,5416.00
2019-03-21T06:01:40.907Z,5492.00
2019-03-21T06:02:51.039Z,5600.00
2019-03-21T06:03:40.884Z,5596.00
2019-03-21T06:04:40.877Z,5264.00
2019-03-21T06:05:40.880Z,5648.00
2019-03-21T06:06:40.867Z,5668.00
2019-03-21T06:07:40.849Z,5788.00
2019-03-21T06:08:40.833Z,5864.00
2019-03-21T06:09:40.831Z,5912.00
2019-03-21T06:10:40.808Z,5880.00
2019-03-21T06:11:40.864Z,5836.00
2019-03-21T06:12:40.794Z,5968.00
2019-03-21T06:13:40.779Z,5976.00
2019-03-21T06:14:40.766Z,5956.00
2019-03-21T06:15:40.755Z,6008.00
2019-03-21T06:16:40.749Z,6036.00
2019-03-21T06:17:40.751Z,6172.00
2019-03-21T06:18:40.724Z,6312.00
2019-03-21T06:19:40.722Z,6212.00
2019-03-21T06:20:40.709Z,6332.00
2019-03-21T06:21:40.734Z,6288.00
2019-03-21T06:22:40.686Z,6388.00
2019-03-21T06:23:40.675Z,6444.00
2019-03-21T06:24:40.659Z,6496.00
2019-03-21T06:25:40.652Z,6476.00
2019-03-21T06:26:40.644Z,6632.00
2019-03-21T06:27:40.673Z,6736.00
2019-03-21T06:28:40.619Z,6964.00
2019-03-21T06:29:40.611Z,7012.00
2019-03-21T06:30:40.596Z,6800.00
2019-03-21T06:31:40.595Z,6720.00
2019-03-21T06:32:40.578Z,6960.00
2019-03-21T06:33:51.335Z,7028.00
2019-03-21T06:34:40.608Z,6952.00
2019-03-21T06:35:40.544Z,7136.00
2019-03-21T06:36:40.544Z,7144.00
2019-03-21T06:37:40.559Z,7160.00
2019-03-21T06:38:40.550Z,7284.00
2019-03-21T06:39:40.512Z,7560.00
2019-03-21T06:40:40.494Z,7628.00
2019-03-21T06:41:40.479Z,7564.00
2019-03-21T06:42:40.480Z,7832.00
2019-03-21T06:43:40.467Z,7956.00
2019-03-21T06:44:40.490Z,8068.00
2019-03-21T06:45:48.001Z,8132.00
2019-03-21T06:46:49.294Z,7736.00
2019-03-21T06:47:41.440Z,8372.00
2019-03-21T06:48:40.408Z,8548.00
2019-03-21T06:49:40.403Z,8676.00
2019-03-21T06:50:40.388Z,8948.00
2019-03-21T06:51:40.373Z,9116.00
2019-03-21T06:52:40.367Z,9452.00
2019-03-21T06:53:40.352Z,9812.00
2019-03-21T06:54:40.342Z,9196.00
2019-03-21T06:55:40.375Z,9116.00
2019-03-21T06:56:40.322Z,9444.00
2019-03-21T06:57:40.331Z,9028.00
2019-03-21T06:58:40.301Z,9968.00
2019-03-21T06:59:40.289Z,10208.00
2019-03-21T07:00:40.274Z,10548.00
2019-03-21T07:01:40.339Z,10524.00
2019-03-21T07:02:40.260Z,11640.00
2019-03-21T07:03:40.254Z,10272.00
2019-03-21T07:04:52.111Z,12600.00
2019-03-21T07:05:40.221Z,15160.00
2019-03-21T07:06:40.204Z,20704.00
2019-03-21T07:07:40.208Z,29760.00
2019-03-21T07:08:40.218Z,32096.00
2019-03-21T07:09:40.181Z,32096.00
2019-03-21T07:10:40.167Z,29568.00
2019-03-21T07:11:40.190Z,29184.00
2019-03-21T07:12:40.146Z,28704.00
2019-03-21T07:13:40.132Z,28864.00
2019-03-21T07:14:40.121Z,27904.00
2019-03-21T07:15:40.115Z,24832.00
2019-03-21T07:16:40.098Z,27808.00
2019-03-21T07:17:40.239Z,23552.00
2019-03-21T07:18:40.078Z,29952.00
2019-03-21T07:19:40.067Z,34752.00
2019-03-21T07:20:40.075Z,33728.00
2019-03-21T07:21:40.050Z,40480.00
2019-03-21T07:22:40.036Z,35520.00
2019-03-21T07:23:40.887Z,24000.00
2019-03-21T07:24:40.017Z,44192.00
2019-03-21T07:25:40.038Z,27744.00
2019-03-21T07:26:39.997Z,48928.00
2019-03-21T07:27:39.976Z,16960.00
2019-03-21T07:28:39.964Z,11812.00
2019-03-21T07:29:39.966Z,12136.00
2019-03-21T07:30:39.942Z,15008.00
2019-03-21T07:31:39.934Z,52544.00
2019-03-21T07:32:39.925Z,49024.00
2019-03-21T07:33:39.908Z,18240.00
2019-03-21T07:34:39.942Z,24864.00
2019-03-21T07:35:50.019Z,15904.00
2019-03-21T07:36:39.887Z,14368.00
2019-03-21T07:37:39.865Z,37632.00
2019-03-21T07:38:39.860Z,16676.00
2019-03-21T07:39:39.848Z,46944.00
2019-03-21T07:40:39.931Z,24032.00
2019-03-21T07:41:39.821Z,16648.00
2019-03-21T07:42:39.818Z,19296.00
2019-03-21T07:43:39.811Z,16432.00
2019-03-21T07:44:39.796Z,15724.00
2019-03-21T07:45:39.891Z,17088.00
2019-03-21T07:46:39.774Z,17792.00
2019-03-21T07:47:39.766Z,16488.00
2019-03-21T07:48:39.743Z,14264.00
2019-03-21T07:49:39.738Z,15012.00
2019-03-21T07:50:39.730Z,16428.00
2019-03-21T07:51:39.716Z,21152.00
2019-03-21T07:52:39.726Z,59264.00
2019-03-21T07:53:39.695Z,66880.00
2019-03-21T07:54:39.676Z,53632.00
2019-03-21T07:55:39.673Z,32192.00
2019-03-21T07:56:39.670Z,57408.00
2019-03-21T07:57:39.682Z,60160.00
2019-03-21T07:58:39.635Z,61120.00
2019-03-21T07:59:39.631Z,57888.00
2019-03-21T08:00:39.614Z,55040.00
2019-03-21T08:01:39.612Z,52672.00
2019-03-21T08:02:39.595Z,35296.00
2019-03-21T08:03:39.616Z,50848.00
2019-03-21T08:04:39.574Z,40768.00
2019-03-21T08:05:40.836Z,50848.00
2019-03-21T08:06:51.104Z,20064.00
2019-03-21T08:07:39.541Z,47264.00
2019-03-21T08:08:39.528Z,47424.00
2019-03-21T08:09:39.617Z,46656.00
2019-03-21T08:10:39.506Z,48512.00
2019-03-21T08:11:39.500Z,16200.00
2019-03-21T08:12:39.487Z,46880.00
2019-03-21T08:13:39.475Z,46880.00
2019-03-21T08:14:39.501Z,33984.00
2019-03-21T08:15:39.449Z,60448.00
2019-03-21T08:16:39.441Z,67264.00
2019-03-21T08:17:39.451Z,68352.00
2019-03-21T08:18:39.433Z,66592.00
2019-03-21T08:19:39.429Z,71456.00
2019-03-21T08:20:39.435Z,72256.00
2019-03-21T08:21:39.384Z,74272.00
2019-03-21T08:22:39.381Z,77568.00
2019-03-21T08:23:39.384Z,74304.00
2019-03-21T08:24:39.351Z,73120.00
2019-03-21T08:25:39.350Z,74560.00
2019-03-21T08:26:39.337Z,74176.00
2019-03-21T08:27:39.326Z,71168.00
2019-03-21T08:28:39.305Z,66720.00
2019-03-21T08:29:39.297Z,60192.00
2019-03-21T08:30:39.291Z,63360.00
2019-03-21T08:31:39.282Z,63104.00
2019-03-21T08:32:39.261Z,61632.00
2019-03-21T08:33:39.261Z,61472.00
2019-03-21T08:34:39.263Z,61728.00
2019-03-21T08:35:39.229Z,57728.00
2019-03-21T08:36:39.245Z,35680.00
2019-03-21T08:37:49.213Z,58432.00
2019-03-21T08:38:39.199Z,57792.00
2019-03-21T08:39:39.185Z,58400.00
2019-03-21T08:40:39.177Z,60672.00
2019-03-21T08:41:39.176Z,60992.00
2019-03-21T08:42:39.193Z,67104.00
2019-03-21T08:43:39.163Z,74528.00
2019-03-21T08:44:39.132Z,71744.00
2019-03-21T08:45:39.128Z,65504.00
2019-03-21T08:46:39.168Z,64544.00
2019-03-21T08:47:39.101Z,65152.00
2019-03-21T08:48:39.101Z,37184.00
2019-03-21T08:49:39.084Z,63360.00
2019-03-21T08:50:39.068Z,54688.00
2019-03-21T08:51:39.066Z,71936.00
2019-03-21T08:52:39.099Z,79232.00
2019-03-21T08:53:39.037Z,82272.00
2019-03-21T08:54:39.030Z,75040.00
2019-03-21T08:55:39.013Z,56256.00
2019-03-21T08:56:39.003Z,50048.00
2019-03-21T08:57:39.002Z,49920.00
2019-03-21T08:58:38.993Z,45120.00
2019-03-21T08:59:38.967Z,87328.00
2019-03-21T09:00:38.960Z,82176.00
2019-03-21T09:01:38.958Z,84000.00
2019-03-21T09:02:38.944Z,84416.00
2019-03-21T09:03:38.967Z,85952.00
2019-03-21T09:04:38.926Z,80192.00
2019-03-21T09:05:38.909Z,74176.00
2019-03-21T09:06:38.895Z,67488.00
2019-03-21T09:07:38.891Z,66240.00
2019-03-21T09:08:48.964Z,76960.00
2019-03-21T09:09:38.866Z,89120.00
2019-03-21T09:10:38.869Z,91808.00
2019-03-21T09:11:38.843Z,87680.00
2019-03-21T09:12:38.836Z,84416.00
2019-03-21T09:13:38.818Z,86304.00
2019-03-21T09:14:38.822Z,92768.00
2019-03-21T09:15:38.811Z,98592.00
2019-03-21T09:16:38.802Z,94144.00
2019-03-21T09:17:38.781Z,92256.00
2019-03-21T09:18:38.785Z,91168.00
2019-03-21T09:19:38.792Z,93248.00
2019-03-21T09:20:38.747Z,97760.00
2019-03-21T09:21:38.738Z,95104.00
2019-03-21T09:22:38.733Z,76608.00
2019-03-21T09:23:38.717Z,85312.00
2019-03-21T09:24:38.709Z,87520.00
2019-03-21T09:25:38.698Z,93088.00
2019-03-21T09:26:38.676Z,89984.00
2019-03-21T09:27:38.698Z,91264.00
2019-03-21T09:28:38.655Z,92544.00
2019-03-21T09:29:38.653Z,91776.00
2019-03-21T09:30:38.648Z,74272.00
2019-03-21T09:31:38.640Z,86656.00
2019-03-21T09:32:38.621Z,96480.00
2019-03-21T09:33:38.614Z,104224.00
2019-03-21T09:34:38.598Z,104448.00
2019-03-21T09:35:38.582Z,100448.00
2019-03-21T09:36:38.712Z,98528.00
2019-03-21T09:37:38.563Z,97472.00
2019-03-21T09:38:38.564Z,94272.00
2019-03-21T09:39:50.100Z,93184.00
2019-03-21T09:40:38.535Z,88832.00
2019-03-21T09:41:38.521Z,91808.00
2019-03-21T09:42:38.975Z,93120.00
2019-03-21T09:43:38.563Z,91712.00
2019-03-21T09:44:38.490Z,92960.00
2019-03-21T09:45:38.488Z,94336.00
2019-03-21T09:46:49.953Z,99104.00
2019-03-21T09:47:39.461Z,99552.00
2019-03-21T09:48:38.449Z,99136.00
2019-03-21T09:49:38.447Z,95776.00
2019-03-21T09:50:38.433Z,96256.00
2019-03-21T09:51:38.422Z,102080.00
2019-03-21T09:52:38.411Z,103168.00
2019-03-21T09:53:38.407Z,102592.00
2019-03-21T09:54:38.393Z,97440.00
2019-03-21T09:55:38.385Z,100032.00
2019-03-21T09:56:38.365Z,100160.00
2019-03-21T09:57:38.418Z,104832.00
2019-03-21T09:58:38.344Z,102560.00
2019-03-21T09:59:38.339Z,104992.00
2019-03-21T10:00:38.329Z,91872.00
2019-03-21T10:01:38.318Z,95360.00
2019-03-21T10:02:38.305Z,100640.00
2019-03-21T10:03:38.328Z,103328.00
2019-03-21T10:04:38.286Z,103296.00
2019-03-21T10:05:38.282Z,101760.00
2019-03-21T10:06:38.269Z,95104.00
2019-03-21T10:07:38.255Z,96000.00
2019-03-21T10:08:38.251Z,97984.00
2019-03-21T10:09:38.274Z,102176.00
2019-03-21T10:10:48.251Z,109344.00
2019-03-21T10:11:38.213Z,108000.00
2019-03-21T10:12:38.207Z,103840.00
2019-03-21T10:13:38.200Z,106048.00
2019-03-21T10:14:38.183Z,105984.00
2019-03-21T10:15:38.218Z,107232.00
2019-03-21T10:16:38.161Z,106496.00
2019-03-21T10:17:38.155Z,107168.00
2019-03-21T10:18:38.139Z,107616.00
2019-03-21T10:19:38.130Z,103808.00
2019-03-21T10:20:38.119Z,103072.00
2019-03-21T10:21:43.326Z,103040.00
2019-03-21T10:22:39.100Z,102240.00
2019-03-21T10:23:38.095Z,104096.00
2019-03-21T10:24:38.087Z,103296.00
2019-03-21T10:25:38.090Z,102400.00
2019-03-21T10:26:38.131Z,107584.00
2019-03-21T10:27:38.186Z,112480.00
2019-03-21T10:28:38.055Z,112928.00
2019-03-21T10:29:38.036Z,108928.00
2019-03-21T10:30:38.030Z,106336.00
2019-03-21T10:31:38.017Z,99488.00
2019-03-21T10:32:38.016Z,94304.00
2019-03-21T10:33:37.988Z,91904.00
2019-03-21T10:34:37.983Z,91616.00
2019-03-21T10:35:37.984Z,94784.00
2019-03-21T10:36:37.963Z,99680.00
2019-03-21T10:37:37.985Z,102464.00
2019-03-21T10:38:37.953Z,106880.00
2019-03-21T10:39:37.936Z,102880.00
2019-03-21T10:40:37.931Z,107456.00
2019-03-21T10:41:48.030Z,104352.00
2019-03-21T10:42:37.904Z,106624.00
2019-03-21T10:43:37.907Z,107008.00
2019-03-21T10:44:37.885Z,106176.00
2019-03-21T10:45:37.907Z,107968.00
2019-03-21T10:46:37.867Z,107232.00
2019-03-21T10:47:37.859Z,110688.00
2019-03-21T10:48:37.846Z,111456.00
2019-03-21T10:49:37.857Z,112224.00
2019-03-21T10:50:37.836Z,113728.00
2019-03-21T10:51:37.896Z,112224.00
2019-03-21T10:52:37.871Z,109856.00
2019-03-21T10:53:37.804Z,106336.00
2019-03-21T10:54:37.790Z,107680.00
2019-03-21T10:55:37.833Z,107392.00
2019-03-21T10:56:37.768Z,109824.00
2019-03-21T10:57:37.779Z,111840.00
2019-03-21T10:58:38.515Z,107616.00
2019-03-21T10:59:37.740Z,104160.00
2019-03-21T11:00:37.862Z,93568.00
2019-03-21T11:01:37.719Z,93920.00
2019-03-21T11:02:37.731Z,115168.00
2019-03-21T11:03:37.825Z,101632.00
2019-03-21T11:04:37.756Z,109120.00
2019-03-21T11:05:37.685Z,96480.00
2019-03-21T11:06:37.734Z,82336.00
2019-03-21T11:07:37.681Z,85088.00
2019-03-21T11:08:37.660Z,91456.00
2019-03-21T11:09:37.645Z,99552.00
2019-03-21T11:10:37.644Z,110176.00
2019-03-21T11:11:37.636Z,112224.00
2019-03-21T11:12:49.743Z,110688.00
2019-03-21T11:13:37.608Z,108832.00
2019-03-21T11:14:37.600Z,105600.00
2019-03-21T11:15:37.584Z,106496.00
2019-03-21T11:16:37.581Z,106176.00
2019-03-21T11:17:37.567Z,107616.00
2019-03-21T11:18:37.567Z,106464.00
2019-03-21T11:19:37.549Z,108064.00
2019-03-21T11:20:37.534Z,108832.00
2019-03-21T11:21:37.524Z,110944.00
2019-03-21T11:22:37.562Z,114112.00
2019-03-21T11:23:37.525Z,109120.00
2019-03-21T11:24:37.507Z,109504.00
2019-03-21T11:25:37.500Z,110720.00
2019-03-21T11:26:37.478Z,112448.00
2019-03-21T11:27:37.473Z,114112.00
2019-03-21T11:28:37.471Z,111200.00
2019-03-21T11:29:37.495Z,109728.00
2019-03-21T11:30:37.432Z,108448.00
2019-03-21T11:31:37.427Z,105568.00
2019-03-21T11:32:37.413Z,106560.00
2019-03-21T11:33:37.404Z,106304.00
2019-03-21T11:34:37.399Z,106080.00
2019-03-21T11:35:37.405Z,107584.00
2019-03-21T11:36:38.508Z,109824.00
2019-03-21T11:37:37.381Z,105568.00
2019-03-21T11:38:37.352Z,105088.00
2019-03-21T11:39:37.349Z,102720.00
2019-03-21T11:40:37.350Z,104448.00
2019-03-21T11:41:37.341Z,104896.00
2019-03-21T11:42:37.318Z,107712.00
2019-03-21T11:43:48.768Z,108480.00
2019-03-21T11:44:37.305Z,105824.00
2019-03-21T11:45:37.299Z,105152.00
2019-03-21T11:46:37.285Z,107840.00
2019-03-21T11:47:41.745Z,106304.00
2019-03-21T11:48:38.261Z,106816.00
2019-03-21T11:49:37.252Z,106624.00
2019-03-21T11:50:37.243Z,104416.00
2019-03-21T11:51:37.231Z,102624.00
2019-03-21T11:52:37.227Z,104256.00
2019-03-21T11:53:37.206Z,104000.00
2019-03-21T11:54:37.199Z,108288.00
2019-03-21T11:55:37.221Z,108992.00
2019-03-21T11:56:37.186Z,108032.00
2019-03-21T11:57:37.172Z,104896.00
2019-03-21T11:58:37.159Z,108832.00
2019-03-21T11:59:50.738Z,107232.00
2019-03-21T12:00:44.468Z,104992.00
2019-03-21T12:01:38.138Z,104384.00
2019-03-21T12:02:37.123Z,102560.00
2019-03-21T12:03:37.117Z,104768.00
2019-03-21T12:04:37.101Z,101280.00
2019-03-21T12:05:37.088Z,100544.00
2019-03-21T12:06:37.105Z,96512.00
2019-03-21T12:07:37.076Z,98976.00
2019-03-21T12:08:37.063Z,100704.00
2019-03-21T12:09:37.057Z,103936.00
2019-03-21T12:10:37.040Z,104928.00